createdAt,value
2023-02-01T00:00:19.032Z,76.04
2023-02-01T00:02:49.371Z,75.96
2023-02-01T00:05:22.654Z,75.81
2023-02-01T00:07:52.767Z,76.05
2023-02-01T00:10:23.480Z,76.20
2023-02-01T00:12:53.738Z,75.92
2023-02-01T00:15:24.431Z,76.17
2023-02-01T00:17:56.619Z,76.30
2023-02-01T00:20:29.365Z,76.13
2023-02-01T00:22:59.521Z,76.41
2023-02-01T00:25:29.722Z,76.37
2023-02-01T00:28:01.856Z,76.21
2023-02-01T00:30:32.001Z,76.07
2023-02-01T00:33:02.315Z,76.30
2023-02-01T00:35:37.343Z,76.32
2023-02-01T00:38:07.521Z,76.02
2023-02-01T00:40:37.637Z,76.35
2023-02-01T00:43:08.290Z,76.24
2023-02-01T00:45:39.349Z,76.41
2023-02-01T00:48:09.859Z,76.36
2023-02-01T00:50:44.726Z,76.48
2023-02-01T00:53:14.941Z,76.22
2023-02-01T00:55:48.257Z,76.41
2023-02-01T00:58:18.744Z,76.55
2023-02-01T01:00:50.660Z,76.41
2023-02-01T01:03:23.548Z,76.23
2023-02-01T01:06:00.516Z,76.48
2023-02-01T01:08:31.319Z,76.38
2023-02-01T01:11:01.576Z,76.45
2023-02-01T01:13:31.631Z,76.66
2023-02-01T01:16:03.938Z,76.48
2023-02-01T01:18:35.009Z,76.27
2023-02-01T01:21:08.111Z,76.42
2023-02-01T01:23:38.694Z,75.97
2023-02-01T01:26:09.598Z,76.00
2023-02-01T01:28:39.764Z,75.88
2023-02-01T01:31:11.960Z,76.25
2023-02-01T01:33:42.140Z,76.24
2023-02-01T01:36:15.609Z,76.10
2023-02-01T01:38:45.927Z,76.03
2023-02-01T01:41:17.935Z,76.22
2023-02-01T01:43:51.253Z,76.11
2023-02-01T01:46:23.335Z,76.24
2023-02-01T01:48:55.328Z,75.98
2023-02-01T01:51:29.793Z,75.98
2023-02-01T01:54:03.577Z,76.21
2023-02-01T01:56:34.941Z,75.91
2023-02-01T01:59:06.597Z,75.79
2023-02-01T02:01:36.883Z,75.95
2023-02-01T02:04:07.731Z,76.04
2023-02-01T02:06:46.517Z,75.70
2023-02-01T02:09:16.704Z,75.81
2023-02-01T02:11:47.010Z,75.75
2023-02-01T02:14:19.474Z,75.76
2023-02-01T02:16:54.579Z,76.00
2023-02-01T02:19:39.819Z,75.82
2023-02-01T02:22:22.915Z,75.87
2023-02-01T02:25:09.133Z,75.81
2023-02-01T02:27:52.123Z,75.71
2023-02-01T02:30:39.949Z,75.54
2023-02-01T02:33:25.186Z,75.66
2023-02-01T02:36:01.110Z,75.26
2023-02-01T02:38:34.232Z,75.11
2023-02-01T02:41:08.035Z,75.16
2023-02-01T02:43:58.276Z,75.43
2023-02-01T02:46:42.737Z,75.43
2023-02-01T02:49:16.331Z,75.05
2023-02-01T02:52:06.011Z,75.07
2023-02-01T02:54:52.796Z,74.91
2023-02-01T02:57:37.155Z,74.69
2023-02-01T03:00:21.945Z,74.86
2023-02-01T03:03:05.606Z,74.73
2023-02-01T03:05:36.771Z,74.48
2023-02-01T03:08:13.774Z,74.12
2023-02-01T03:10:47.490Z,74.42
2023-02-01T03:13:19.582Z,74.17
2023-02-01T03:15:52.896Z,74.01
2023-02-01T03:18:26.124Z,73.84
2023-02-01T03:20:57.625Z,74.04
2023-02-01T03:23:33.553Z,74.24
2023-02-01T03:26:05.649Z,74.07
2023-02-01T03:28:37.203Z,74.29
2023-02-01T03:31:08.267Z,74.02
2023-02-01T03:33:38.413Z,74.08
2023-02-01T03:36:15.248Z,74.23
2023-02-01T03:38:51.802Z,74.16
2023-02-01T03:41:27.724Z,74.35
2023-02-01T03:43:59.515Z,74.71
2023-02-01T03:46:34.570Z,74.89
2023-02-01T03:49:10.808Z,74.91
2023-02-01T03:51:43.777Z,74.66
2023-02-01T03:54:18.838Z,75.05
2023-02-01T03:56:51.303Z,75.45
2023-02-01T03:59:21.307Z,75.56
2023-02-01T04:01:51.376Z,75.39
2023-02-01T04:04:23.533Z,75.42
2023-02-01T04:06:58.067Z,75.21
2023-02-01T04:09:30.964Z,75.20
2023-02-01T04:12:01.067Z,75.48
2023-02-01T04:14:31.124Z,75.47
2023-02-01T04:17:01.135Z,75.46
2023-02-01T04:19:31.426Z,75.33
2023-02-01T04:22:01.649Z,75.46
2023-02-01T04:24:34.308Z,75.67
2023-02-01T04:27:04.288Z,76.16
2023-02-01T04:29:34.294Z,76.32
2023-02-01T04:32:04.396Z,76.66
2023-02-01T04:34:34.867Z,77.08
2023-02-01T04:37:04.852Z,76.85
2023-02-01T04:39:37.422Z,77.03
2023-02-01T04:42:07.820Z,77.26
2023-02-01T04:44:40.570Z,76.62
2023-02-01T04:47:10.641Z,76.70
2023-02-01T04:49:40.741Z,76.84
2023-02-01T04:52:10.857Z,76.57
2023-02-01T04:54:43.943Z,76.79
2023-02-01T04:57:16.199Z,77.60
2023-02-01T04:59:46.223Z,78.28
2023-02-01T05:02:16.183Z,78.62
2023-02-01T05:04:46.393Z,79.37
2023-02-01T05:07:16.447Z,79.38
2023-02-01T05:09:49.089Z,80.21
2023-02-01T05:12:31.593Z,80.66
2023-02-01T05:15:01.841Z,80.80
2023-02-01T05:17:32.092Z,81.04
2023-02-01T05:20:02.241Z,81.11
2023-02-01T05:22:32.367Z,81.71
2023-02-01T05:25:06.823Z,82.13
2023-02-01T05:27:38.470Z,82.58
2023-02-01T05:30:09.472Z,82.92
2023-02-01T05:32:39.490Z,83.56
2023-02-01T05:35:10.360Z,83.37
2023-02-01T05:37:40.751Z,83.43
2023-02-01T05:40:14.457Z,83.40
2023-02-01T05:42:44.633Z,83.66
2023-02-01T05:45:15.194Z,83.58
2023-02-01T05:47:55.800Z,83.52
2023-02-01T05:50:25.949Z,83.42
2023-02-01T05:53:00.569Z,83.31
2023-02-01T05:55:33.229Z,83.13
2023-02-01T05:58:03.329Z,82.97
2023-02-01T06:00:33.793Z,82.90
2023-02-01T06:03:03.896Z,82.41
2023-02-01T06:05:34.008Z,82.19
2023-02-01T06:08:04.244Z,82.04
2023-02-01T06:10:37.043Z,81.65
2023-02-01T06:13:07.146Z,81.31
2023-02-01T06:15:38.466Z,81.54
2023-02-01T06:18:08.582Z,81.21
2023-02-01T06:20:38.827Z,80.99
2023-02-01T06:23:08.874Z,80.99
2023-02-01T06:25:41.452Z,80.71
2023-02-01T06:28:11.437Z,80.60
2023-02-01T06:30:44.314Z,80.71
2023-02-01T06:33:15.805Z,80.85
2023-02-01T06:35:46.851Z,80.78
2023-02-01T06:38:17.316Z,81.01
2023-02-01T06:40:55.629Z,80.95
2023-02-01T06:43:26.495Z,81.48
2023-02-01T06:45:56.751Z,81.23
2023-02-01T06:48:26.703Z,81.39
2023-02-01T06:50:56.831Z,81.71
2023-02-01T06:53:26.966Z,82.06
2023-02-01T06:56:01.565Z,82.28
2023-02-01T06:58:32.461Z,82.71
2023-02-01T07:01:07.787Z,82.92
2023-02-01T07:03:37.992Z,82.87
2023-02-01T07:06:08.621Z,83.13
2023-02-01T07:08:40.313Z,83.11
2023-02-01T07:11:14.588Z,82.97
2023-02-01T07:13:44.698Z,82.88
2023-02-01T07:16:16.213Z,82.60
2023-02-01T07:18:46.505Z,82.50
2023-02-01T07:21:16.614Z,82.53
2023-02-01T07:23:46.725Z,82.73
2023-02-01T07:26:19.688Z,82.62
2023-02-01T07:28:50.021Z,82.71
2023-02-01T07:31:21.940Z,82.62
2023-02-01T07:33:52.636Z,82.68
2023-02-01T07:36:22.968Z,82.40
2023-02-01T07:38:56.363Z,82.39
2023-02-01T07:41:29.386Z,82.33
2023-02-01T07:43:59.544Z,82.04
2023-02-01T07:46:29.768Z,81.87
2023-02-01T07:48:59.886Z,82.00
2023-02-01T07:51:29.903Z,81.80
2023-02-01T07:54:00.191Z,81.59
2023-02-01T07:56:32.946Z,81.18
2023-02-01T07:59:02.957Z,80.80
2023-02-01T08:01:30.637Z,80.87
2023-02-01T08:04:03.230Z,80.59
2023-02-01T08:06:34.940Z,80.53
2023-02-01T08:09:05.388Z,80.32
2023-02-01T08:11:39.081Z,80.77
2023-02-01T08:14:09.710Z,80.89
2023-02-01T08:16:40.352Z,80.52
2023-02-01T08:19:10.575Z,80.74
2023-02-01T08:21:40.744Z,80.50
2023-02-01T08:24:12.928Z,80.38
2023-02-01T08:26:46.114Z,80.03
2023-02-01T08:29:16.152Z,79.88
2023-02-01T08:31:46.341Z,79.65
2023-02-01T08:34:16.433Z,79.28
2023-02-01T08:36:46.815Z,79.44
2023-02-01T08:39:16.984Z,79.41
2023-02-01T08:42:11.165Z,79.11
2023-02-01T08:44:41.321Z,78.98
2023-02-01T08:47:12.426Z,78.96
2023-02-01T08:49:42.549Z,78.69
2023-02-01T08:52:16.013Z,78.72
2023-02-01T08:54:46.820Z,77.93
2023-02-01T08:57:19.997Z,77.57
2023-02-01T08:59:50.541Z,77.08
2023-02-01T09:02:22.674Z,77.14
2023-02-01T09:04:53.052Z,77.26
2023-02-01T09:07:23.432Z,77.24
2023-02-01T09:09:55.663Z,76.77
2023-02-01T09:12:28.497Z,76.33
2023-02-01T09:15:00.611Z,75.84
2023-02-01T09:17:31.450Z,75.45
2023-02-01T09:20:01.560Z,74.99
2023-02-01T09:22:31.944Z,74.70
2023-02-01T09:25:01.984Z,75.02
2023-02-01T09:27:34.661Z,74.65
2023-02-01T09:30:05.664Z,74.55
2023-02-01T09:32:36.004Z,74.97
2023-02-01T09:35:06.120Z,74.47
2023-02-01T09:37:37.122Z,74.18
2023-02-01T09:40:07.970Z,74.34
2023-02-01T09:42:53.966Z,74.25
2023-02-01T09:45:27.808Z,74.45
2023-02-01T09:47:59.271Z,74.14
2023-02-01T09:50:35.057Z,74.59
2023-02-01T09:53:06.473Z,74.40
2023-02-01T09:55:40.143Z,74.62
2023-02-01T09:58:17.667Z,74.24
2023-02-01T10:00:52.486Z,74.72
2023-02-01T10:03:23.485Z,73.97
2023-02-01T10:06:07.748Z,74.40
2023-02-01T10:08:43.144Z,73.55
2023-02-01T10:11:22.640Z,73.55
2023-02-01T10:14:01.683Z,73.59
2023-02-01T10:16:38.490Z,73.36
2023-02-01T10:19:20.793Z,73.62
2023-02-01T10:21:54.923Z,73.16
2023-02-01T10:24:40.439Z,73.32
2023-02-01T10:27:15.784Z,73.38
2023-02-01T10:29:52.044Z,73.14
2023-02-01T10:32:24.391Z,72.96
2023-02-01T10:34:57.004Z,72.76
2023-02-01T10:37:37.198Z,73.38
2023-02-01T10:40:14.142Z,72.79
2023-02-01T10:42:44.352Z,73.02
2023-02-01T10:45:21.025Z,73.24
2023-02-01T10:47:53.162Z,72.89
2023-02-01T10:50:28.909Z,72.96
2023-02-01T10:53:02.650Z,72.46
2023-02-01T10:55:35.790Z,72.65
2023-02-01T10:58:06.536Z,72.54
2023-02-01T11:00:48.387Z,72.83
2023-02-01T11:03:43.198Z,72.67
2023-02-01T11:06:15.274Z,72.65
2023-02-01T11:08:52.482Z,72.61
2023-02-01T11:11:23.608Z,72.46
2023-02-01T11:14:01.057Z,72.58
2023-02-01T11:16:37.610Z,72.49
2023-02-01T11:19:08.207Z,72.29
2023-02-01T11:21:39.512Z,71.99
2023-02-01T11:24:14.823Z,71.80
2023-02-01T11:26:45.427Z,71.72
2023-02-01T11:29:18.677Z,71.46
2023-02-01T11:31:51.848Z,71.66
2023-02-01T11:34:24.381Z,71.80
2023-02-01T11:36:55.613Z,71.61
2023-02-01T11:39:28.531Z,72.01
2023-02-01T11:42:00.799Z,71.01
2023-02-01T11:44:34.851Z,70.81
2023-02-01T11:47:19.963Z,71.23
2023-02-01T11:49:53.582Z,72.32
2023-02-01T11:52:33.663Z,71.02
2023-02-01T11:55:12.151Z,71.12
2023-02-01T11:57:48.286Z,71.21
2023-02-01T12:00:40.926Z,70.75
2023-02-01T12:03:27.750Z,70.96
2023-02-01T12:06:02.844Z,70.79
2023-02-01T12:08:54.730Z,70.61
2023-02-01T12:11:39.128Z,70.53
2023-02-01T12:14:19.895Z,69.42
2023-02-01T12:16:56.364Z,68.93
2023-02-01T12:19:47.416Z,69.00
2023-02-01T12:22:26.262Z,69.72
2023-02-01T12:25:08.591Z,69.84
2023-02-01T12:27:53.985Z,70.85
2023-02-01T12:30:42.157Z,71.44
2023-02-01T12:33:17.914Z,72.47
2023-02-01T12:35:59.118Z,72.61
2023-02-01T12:38:39.867Z,73.82
2023-02-01T12:41:17.234Z,74.38
2023-02-01T12:43:49.817Z,74.96
2023-02-01T12:46:21.597Z,76.04
2023-02-01T12:48:57.145Z,76.41
2023-02-01T12:51:29.205Z,77.39
2023-02-01T12:54:05.942Z,78.94
2023-02-01T12:56:39.767Z,79.30
2023-02-01T12:59:19.247Z,79.60
2023-02-01T13:01:53.183Z,79.62
2023-02-01T13:04:27.223Z,79.11
2023-02-01T13:07:01.733Z,79.34
2023-02-01T13:09:38.530Z,79.58
2023-02-01T13:12:13.757Z,80.08
2023-02-01T13:14:47.575Z,80.23
2023-02-01T13:17:21.228Z,80.52
2023-02-01T13:19:54.234Z,80.85
2023-02-01T13:22:27.161Z,81.17
2023-02-01T13:25:02.233Z,81.76
2023-02-01T13:27:33.941Z,82.18
2023-02-01T13:30:06.563Z,82.70
2023-02-01T13:33:54.879Z,83.92
2023-02-01T13:36:08.976Z,82.42
2023-02-01T13:38:47.115Z,82.58
2023-02-01T13:41:28.982Z,83.67
2023-02-01T13:44:00.309Z,84.41
2023-02-01T13:46:31.316Z,85.28
2023-02-01T13:49:03.078Z,85.72
2023-02-01T13:51:37.140Z,86.30
2023-02-01T13:54:08.339Z,86.61
2023-02-01T13:56:47.771Z,87.22
2023-02-01T13:59:32.585Z,87.15
2023-02-01T14:02:23.561Z,87.13
2023-02-01T14:04:54.715Z,86.97
2023-02-01T14:07:25.928Z,86.95
2023-02-01T14:09:56.063Z,86.99
2023-02-01T14:12:41.191Z,87.14
2023-02-01T14:15:25.993Z,87.21
2023-02-01T14:17:56.750Z,87.13
2023-02-01T14:20:50.136Z,87.28
2023-02-01T14:23:31.625Z,87.10
2023-02-01T14:26:08.481Z,87.04
2023-02-01T14:28:40.622Z,87.49
2023-02-01T14:31:21.824Z,87.21
2023-02-01T14:33:51.926Z,87.13
2023-02-01T14:36:21.981Z,87.32
2023-02-01T14:38:53.660Z,87.11
2023-02-01T14:41:33.891Z,86.89
2023-02-01T14:44:17.706Z,87.05
2023-02-01T14:47:02.760Z,86.69
2023-02-01T14:49:36.919Z,86.58
2023-02-01T14:52:10.201Z,86.62
2023-02-01T14:54:41.042Z,86.31
2023-02-01T14:57:17.868Z,86.35
2023-02-01T14:59:49.429Z,86.73
2023-02-01T15:02:24.274Z,86.67
2023-02-01T15:05:02.444Z,86.65
2023-02-01T15:07:32.905Z,86.68
2023-02-01T15:10:03.613Z,86.53
2023-02-01T15:12:34.304Z,86.72
2023-02-01T15:15:13.588Z,86.33
2023-02-01T15:17:44.148Z,86.42
2023-02-01T15:20:22.196Z,86.17
2023-02-01T15:22:58.284Z,85.88
2023-02-01T15:25:30.058Z,85.60
2023-02-01T15:28:00.546Z,85.64
2023-02-01T15:30:31.562Z,85.18
2023-02-01T15:33:09.729Z,85.09
2023-02-01T15:35:44.684Z,85.25
2023-02-01T15:38:25.364Z,85.31
2023-02-01T15:40:59.652Z,85.45
2023-02-01T15:43:30.629Z,85.59
2023-02-01T15:46:01.259Z,85.95
2023-02-01T15:48:35.183Z,85.77
2023-02-01T15:51:08.620Z,85.83
2023-02-01T15:53:38.798Z,85.91
2023-02-01T15:56:10.278Z,86.16
2023-02-01T15:58:40.390Z,86.39
2023-02-01T16:01:14.996Z,86.48
2023-02-01T16:03:48.213Z,86.39
2023-02-01T16:06:35.337Z,86.53
2023-02-01T16:09:06.551Z,86.73
2023-02-01T16:11:43.536Z,86.86
2023-02-01T16:14:13.900Z,86.88
2023-02-01T16:16:44.273Z,87.09
2023-02-01T16:19:14.384Z,86.97
2023-02-01T16:21:47.082Z,86.86
2023-02-01T16:24:17.183Z,87.04
2023-02-01T16:26:47.577Z,87.26
2023-02-01T16:29:17.764Z,87.38
2023-02-01T16:31:47.869Z,87.39
2023-02-01T16:34:18.673Z,87.32
2023-02-01T16:36:58.029Z,87.07
2023-02-01T16:39:28.751Z,87.27
2023-02-01T16:42:00.993Z,87.24
2023-02-01T16:44:31.587Z,87.25
2023-02-01T16:47:01.792Z,87.04
2023-02-01T16:49:31.805Z,86.70
2023-02-01T16:52:04.533Z,86.58
2023-02-01T16:54:34.602Z,86.20
2023-02-01T16:57:04.627Z,86.15
2023-02-01T16:59:34.804Z,85.84
2023-02-01T17:02:05.018Z,85.36
2023-02-01T17:04:36.792Z,85.00
2023-02-01T17:07:10.544Z,84.59
2023-02-01T17:09:40.969Z,84.26
2023-02-01T17:12:15.893Z,83.91
2023-02-01T17:14:46.585Z,84.03
2023-02-01T17:17:20.517Z,83.90
2023-02-01T17:19:54.368Z,83.76
2023-02-01T17:22:27.495Z,83.66
2023-02-01T17:24:57.698Z,83.36
2023-02-01T17:27:27.797Z,83.25
2023-02-01T17:29:58.005Z,82.98
2023-02-01T17:32:29.129Z,82.80
2023-02-01T17:34:59.151Z,82.86
2023-02-01T17:37:32.970Z,82.77
2023-02-01T17:40:03.555Z,82.60
2023-02-01T17:42:33.982Z,82.64
2023-02-01T17:45:05.388Z,82.36
2023-02-01T17:47:36.119Z,82.54
2023-02-01T17:50:06.362Z,82.19
2023-02-01T17:52:39.583Z,82.25
2023-02-01T17:55:18.667Z,81.82
2023-02-01T17:57:49.104Z,81.62
2023-02-01T18:00:20.365Z,81.46
2023-02-01T18:02:50.774Z,81.35
2023-02-01T18:05:23.921Z,81.51
2023-02-01T18:07:56.835Z,81.29
2023-02-01T18:10:26.909Z,81.47
2023-02-01T18:12:57.505Z,81.54
2023-02-01T18:15:29.036Z,82.05
2023-02-01T18:17:59.823Z,82.44
2023-02-01T18:20:30.789Z,82.90
2023-02-01T18:23:04.519Z,83.37
2023-02-01T18:25:38.745Z,83.27
2023-02-01T18:28:08.944Z,83.17
2023-02-01T18:30:39.112Z,83.62
2023-02-01T18:33:09.418Z,83.76
2023-02-01T18:35:39.766Z,83.58
2023-02-01T18:38:12.489Z,83.36
2023-02-01T18:40:44.671Z,83.54
2023-02-01T18:43:15.279Z,82.88
2023-02-01T18:45:47.379Z,82.95
2023-02-01T18:48:19.583Z,82.19
2023-02-01T18:50:52.058Z,81.64
2023-02-01T18:53:27.183Z,81.30
2023-02-01T18:55:57.615Z,81.20
2023-02-01T18:58:28.254Z,81.29
2023-02-01T19:00:59.150Z,81.55
2023-02-01T19:03:29.251Z,82.00
2023-02-01T19:05:59.888Z,82.46
2023-02-01T19:08:33.001Z,82.87
2023-02-01T19:11:03.245Z,82.89
2023-02-01T19:13:33.294Z,83.51
2023-02-01T19:16:08.345Z,83.94
2023-02-01T19:18:39.445Z,83.71
2023-02-01T19:21:13.434Z,83.47
2023-02-01T19:23:49.439Z,82.78
2023-02-01T19:26:20.473Z,82.15
2023-02-01T19:28:50.565Z,82.14
2023-02-01T19:31:20.871Z,81.74
2023-02-01T19:33:51.319Z,81.56
2023-02-01T19:36:21.579Z,81.34
2023-02-01T19:38:54.276Z,80.92
2023-02-01T19:41:24.288Z,80.51
2023-02-01T19:43:54.446Z,80.60
2023-02-01T19:46:24.689Z,80.49
2023-02-01T19:48:54.752Z,81.01
2023-02-01T19:51:24.926Z,81.19
2023-02-01T19:53:57.642Z,80.93
2023-02-01T19:56:27.717Z,80.91
2023-02-01T19:58:58.407Z,81.24
2023-02-01T20:01:28.261Z,81.12
2023-02-01T20:04:01.879Z,81.43
2023-02-01T20:06:32.213Z,81.35
2023-02-01T20:09:04.847Z,80.78
2023-02-01T20:11:35.389Z,80.35
2023-02-01T20:14:05.422Z,80.16
2023-02-01T20:16:35.606Z,79.79
2023-02-01T20:19:06.076Z,79.69
2023-02-01T20:21:36.062Z,79.47
2023-02-01T20:24:08.907Z,79.65
2023-02-01T20:26:39.817Z,79.57
2023-02-01T20:29:10.323Z,79.09
2023-02-01T20:31:40.420Z,79.03
2023-02-01T20:34:10.499Z,79.29
2023-02-01T20:36:40.739Z,79.42
2023-02-01T20:39:13.475Z,80.39
2023-02-01T20:41:43.683Z,81.40
2023-02-01T20:44:13.850Z,81.77
2023-02-01T20:46:43.967Z,81.92
2023-02-01T20:49:14.041Z,82.27
2023-02-01T20:51:44.213Z,82.06
2023-02-01T20:54:16.852Z,82.05
2023-02-01T20:56:47.694Z,82.30
2023-02-01T20:59:17.909Z,82.37
2023-02-01T21:01:54.632Z,82.37
2023-02-01T21:04:27.499Z,82.44
2023-02-01T21:06:57.997Z,82.27
2023-02-01T21:09:31.270Z,82.73
2023-02-01T21:12:02.026Z,83.26
2023-02-01T21:14:32.301Z,83.08
2023-02-01T21:17:02.619Z,82.92
2023-02-01T21:19:43.084Z,82.99
2023-02-01T21:22:13.697Z,83.19
2023-02-01T21:24:46.323Z,83.14
2023-02-01T21:27:16.598Z,83.44
2023-02-01T21:29:46.768Z,83.75
2023-02-01T21:32:16.865Z,83.67
2023-02-01T21:34:47.211Z,83.17
2023-02-01T21:37:17.339Z,83.08
2023-02-01T21:39:50.694Z,82.55
2023-02-01T21:42:22.122Z,82.19
2023-02-01T21:44:52.456Z,81.60
2023-02-01T21:47:26.001Z,80.85
2023-02-01T21:49:57.124Z,80.71
2023-02-01T21:52:28.049Z,80.72
2023-02-01T21:55:00.913Z,80.93
2023-02-01T21:57:31.265Z,80.80
2023-02-01T22:00:01.530Z,81.11
2023-02-01T22:02:34.596Z,81.09
2023-02-01T22:05:05.315Z,80.88
2023-02-01T22:07:36.502Z,80.44
2023-02-01T22:10:09.565Z,80.19
2023-02-01T22:12:39.735Z,80.31
2023-02-01T22:15:10.251Z,80.17
2023-02-01T22:17:41.197Z,79.70
2023-02-01T22:20:12.267Z,80.03
2023-02-01T22:22:42.567Z,79.75
2023-02-01T22:25:15.446Z,79.54
2023-02-01T22:28:32.341Z,79.75
2023-02-01T22:30:35.816Z,79.49
2023-02-01T22:33:06.187Z,79.06
2023-02-01T22:35:36.222Z,78.94
2023-02-01T22:38:06.450Z,79.27
2023-02-01T22:40:39.017Z,79.42
2023-02-01T22:43:09.018Z,79.74
2023-02-01T22:45:39.347Z,79.63
2023-02-01T22:48:09.650Z,79.49
2023-02-01T22:50:39.704Z,79.64
2023-02-01T22:53:09.820Z,79.65
2023-02-01T22:55:45.477Z,79.71
2023-02-01T22:58:15.772Z,79.44
2023-02-01T23:00:45.747Z,79.29
2023-02-01T23:03:15.814Z,79.37
2023-02-01T23:05:45.991Z,79.25
2023-02-01T23:08:16.046Z,79.33
2023-02-01T23:10:48.793Z,79.35
2023-02-01T23:13:18.840Z,79.43
2023-02-01T23:15:49.001Z,79.50
2023-02-01T23:18:19.023Z,79.34
2023-02-01T23:20:49.124Z,79.10
2023-02-01T23:23:19.079Z,79.04
2023-02-01T23:25:54.801Z,79.14
2023-02-01T23:28:24.971Z,78.92
2023-02-01T23:30:55.044Z,78.95
2023-02-01T23:33:25.945Z,78.79
2023-02-01T23:36:00.210Z,78.96
2023-02-01T23:38:30.430Z,78.85
2023-02-01T23:41:03.871Z,78.80
2023-02-01T23:43:46.444Z,78.78
2023-02-01T23:46:17.154Z,78.59
2023-02-01T23:48:47.952Z,78.60
2023-02-01T23:51:18.831Z,78.29
2023-02-01T23:53:49.182Z,78.61
2023-02-01T23:56:23.509Z,78.67
2023-02-01T23:58:53.897Z,78.62
